Torm Republican — OYNE2 — position and weather

sailwx.info

Track history (hours):
 
Tides and Currents Weather Stations Pressure Air Temp Water Temp Dewpoint Dewpoint Depression Visibility Wind Speed Wind Dir Waves Ship Positions

Torm Republican

Last reported at 2014-Sep-23 06:29 UTC. Time now 2014-Nov-22 15:39 UTC.
Position N 50°13' W 001°39'.
Warning: this ship's position is months out of date.

Length 183 m; draft 11.6 m.

Type: Ship (hazmat cat A). MMSI: 220560000.

Date/timePositionNaut miles runAvg speedWind from/ knotsBaromVisibWave heightAir tempDewpointWater temp
2014-Sep-23 06:29N 50°13' W 001°39'910.0
2014-Sep-23 05:34N 50°15' W 001°26'1111.4
2014-Sep-23 04:34N 50°19' W 001°09'1313.3
2014-Sep-23 03:33N 50°22' W 000°48'1414.1
2014-Sep-23 02:33N 50°26' W 000°27'1513.8
2014-Sep-23 01:28N 50°30' W 000°04'1213.4
2014-Sep-23 00:33N 50°33' E 000°14'1312.6
2014-Sep-22 23:33N 50°36' E 000°33'1211.7
2014-Sep-22 22:34N 50°42' E 000°49'2211.2
2014-Sep-22 20:33N 50°55' E 001°18'1313.4
2014-Sep-22 19:33N 51°05' E 001°33'1514.6
2014-Sep-22 18:33N 51°16' E 001°48'1212.1
2014-Sep-22 17:33N 51°25' E 002°01'1211.5
2014-Sep-22 16:30N 51°21' E 002°20'1212.3
2014-Sep-22 15:32N 51°23' E 002°38'1111.0
2014-Sep-22 14:34N 51°25' E 002°55'1111.1
2014-Sep-22 13:33N 51°25' E 003°13'1110.7
2014-Sep-22 12:33N 51°25' E 003°30'7 7.5
2014-Sep-22 11:33N 51°25' E 003°42'7 7.1
2014-Sep-22 10:33N 51°20' E 003°49'2 1.7
2014-Sep-22 09:34N 51°18' E 003°50'5 4.7
2014-Sep-22 08:33N 51°14' E 003°48'5 4.8
2014-Sep-22 07:33N 51°09' E 003°47'0 0.1
2014-Sep-22 06:32N 51°09' E 003°47'0 0.0
2014-Sep-22 05:32N 51°09' E 003°47'0 0.0
2014-Sep-22 04:32N 51°09' E 003°47'0 0.0
2014-Sep-22 03:32N 51°09' E 003°47'0 0.0
2014-Sep-22 02:32N 51°09' E 003°47'0 0.0
2014-Sep-22 01:32N 51°09' E 003°47'0 0.0
2014-Sep-22 00:32N 51°09' E 003°47'0 0.0
2014-Sep-21 23:32N 51°09' E 003°47'0 0.0
2014-Sep-21 22:32N 51°09' E 003°47'0 0.0
2014-Sep-21 21:32N 51°09' E 003°47'0 0.0
2014-Sep-21 20:32N 51°09' E 003°47'0 0.0
2014-Sep-21 19:28N 51°09' E 003°47'0 0.0
2014-Sep-21 18:31N 51°09' E 003°47'0 0.0
2014-Sep-21 17:31N 51°09' E 003°47'0 0.0
2014-Sep-21 16:31N 51°09' E 003°47'0 0.0
2014-Sep-21 15:19N 51°09' E 003°47'0 0.0
2014-Sep-21 14:31N 51°09' E 003°47'0 0.0
2014-Sep-21 13:31N 51°09' E 003°47'0 0.0
2014-Sep-21 12:31N 51°09' E 003°47'0 0.0
2014-Sep-21 11:31N 51°09' E 003°47'0 0.0
2014-Sep-21 10:31N 51°09' E 003°47'0 0.0
2014-Sep-21 09:25N 51°09' E 003°47'0 0.0
2014-Sep-21 08:31N 51°09' E 003°47'0 0.0
2014-Sep-21 07:31N 51°09' E 003°47'0 0.0
2014-Sep-21 06:31N 51°09' E 003°47'0 0.0
2014-Sep-21 05:31N 51°09' E 003°47'0 0.0
2014-Sep-21 04:31N 51°09' E 003°47'0 0.0
2014-Sep-21 03:31N 51°09' E 003°47'0 0.0
2014-Sep-21 02:31N 51°09' E 003°47'0 0.0
2014-Sep-21 01:31N 51°09' E 003°47'0 0.0
2014-Sep-21 00:31N 51°09' E 003°47'0 0.0
2014-Sep-20 23:31N 51°09' E 003°47'0 0.0
2014-Sep-20 22:31N 51°09' E 003°47'0 0.0
2014-Sep-20 21:31N 51°09' E 003°47'0 0.0
2014-Sep-20 20:31N 51°09' E 003°47'0 0.0
2014-Sep-20 19:31N 51°09' E 003°47'0 0.0
2014-Sep-20 18:31N 51°09' E 003°47'0 0.0
2014-Sep-20 17:31N 51°09' E 003°47'0 0.0
2014-Sep-20 16:31N 51°09' E 003°47'0 0.0
2014-Sep-20 15:31N 51°09' E 003°47'0 0.0
2014-Sep-20 14:31N 51°09' E 003°47'0 0.0
2014-Sep-20 13:31N 51°09' E 003°47'0 0.0
2014-Sep-20 12:31N 51°09' E 003°47'0 0.0
2014-Sep-20 11:31N 51°09' E 003°47'0 0.0
2014-Sep-20 10:31N 51°09' E 003°47'0 0.0
2014-Sep-20 09:33N 51°09' E 003°47'0 0.0
2014-Sep-20 08:30N 51°09' E 003°47'0 0.0
2014-Sep-20 07:31N 51°09' E 003°47'0 0.0
2014-Sep-20 06:30N 51°09' E 003°47'0 0.0
2014-Sep-20 05:30N 51°09' E 003°47'0 0.0
2014-Sep-20 04:30N 51°09' E 003°47'0 0.0
2014-Sep-20 03:30N 51°09' E 003°47'0 0.0
2014-Sep-20 02:30N 51°09' E 003°47'0 0.0
2014-Sep-20 01:30N 51°09' E 003°47'0 0.0
2014-Sep-20 00:24N 51°09' E 003°47'0 0.0
2014-Sep-19 23:24N 51°09' E 003°47'0 0.0
2014-Sep-19 22:25N 51°09' E 003°47'0 0.0
2014-Sep-19 21:24N 51°09' E 003°47'0 0.0
2014-Sep-19 20:33N 51°09' E 003°47'0 0.0
2014-Sep-19 19:33N 51°09' E 003°47'0 0.0
2014-Sep-19 18:33N 51°09' E 003°47'0 0.0
2014-Sep-19 17:33N 51°09' E 003°47'0 0.0
2014-Sep-19 16:33N 51°09' E 003°47'0 0.0
2014-Sep-19 15:30N 51°09' E 003°47'0 0.0
2014-Sep-19 14:33N 51°09' E 003°47'0 0.0
2014-Sep-19 13:30N 51°09' E 003°47'0 0.0
2014-Sep-19 12:27N 51°09' E 003°47'0 0.0
2014-Sep-19 11:33N 51°09' E 003°47'0 0.0
2014-Sep-19 10:30N 51°09' E 003°47'0 0.0
2014-Sep-19 09:30N 51°09' E 003°47'0 0.0
2014-Sep-19 08:30N 51°09' E 003°47'0 0.0
2014-Sep-19 07:33N 51°09' E 003°47'0 0.0
2014-Sep-19 06:33N 51°09' E 003°47'0 0.0
2014-Sep-19 05:33N 51°09' E 003°47'0 0.0
2014-Sep-19 04:33N 51°09' E 003°47'0 0.0
2014-Sep-19 03:30N 51°09' E 003°47'0 0.0
2014-Sep-19 02:30N 51°09' E 003°47'0 0.0
2014-Sep-19 01:27N 51°09' E 003°47'0 0.0
2014-Sep-19 00:30N 51°09' E 003°47'0 0.0
2014-Sep-18 23:30N 51°09' E 003°47'0 0.0
2014-Sep-18 22:30N 51°09' E 003°47'0 0.0
2014-Sep-18 21:30N 51°09' E 003°47'0 0.0
2014-Sep-18 20:30N 51°09' E 003°47'0 0.0
2014-Sep-18 19:32N 51°09' E 003°47'0 0.0
2014-Sep-18 18:32N 51°09' E 003°47'0 0.0
2014-Sep-18 17:32N 51°09' E 003°47'0 0.0
2014-Sep-18 16:32N 51°09' E 003°47'0 0.0
2014-Sep-18 15:32N 51°09' E 003°47'0 0.0
2014-Sep-18 14:33N 51°09' E 003°47'0 0.0
2014-Sep-18 13:32N 51°09' E 003°47'0 0.0
2014-Sep-18 12:29N 51°09' E 003°47'0 0.0
2014-Sep-18 11:32N 51°09' E 003°47'0 0.0
2014-Sep-18 10:29N 51°09' E 003°47'0 0.0
2014-Sep-18 09:29N 51°09' E 003°47'0 0.0
2014-Sep-18 08:32N 51°09' E 003°47'0 0.0
2014-Sep-18 07:29N 51°09' E 003°47'0 0.0
2014-Sep-18 06:29N 51°09' E 003°47'0 0.0
2014-Sep-18 05:29N 51°09' E 003°47'0 0.0
2014-Sep-18 04:32N 51°09' E 003°47'0 0.0
2014-Sep-18 03:29N 51°09' E 003°47'0 0.0
2014-Sep-18 02:32N 51°09' E 003°47'0 0.0
2014-Sep-18 01:29N 51°09' E 003°47'0 0.0
2014-Sep-18 00:20N 51°09' E 003°47'0 0.0
2014-Sep-17 23:32N 51°09' E 003°47'0 0.0
2014-Sep-17 22:32N 51°09' E 003°47'0 0.0
2014-Sep-17 21:29N 51°09' E 003°47'0 0.0
2014-Sep-17 20:32N 51°09' E 003°47'0 0.0
2014-Sep-17 19:29N 51°09' E 003°47'0 0.0
2014-Sep-17 18:32N 51°09' E 003°47'0 0.0
2014-Sep-17 17:29N 51°09' E 003°47'0 0.0
2014-Sep-17 16:26N 51°09' E 003°47'0 0.0
2014-Sep-17 15:29N 51°09' E 003°47'0 0.0
2014-Sep-17 14:29N 51°09' E 003°47'0 0.0
2014-Sep-17 13:32N 51°09' E 003°47'0 0.0
2014-Sep-17 12:23N 51°09' E 003°47'0 0.0
2014-Sep-17 11:29N 51°09' E 003°47'0 0.0
2014-Sep-17 10:26N 51°09' E 003°47'0 0.0
2014-Sep-17 09:29N 51°09' E 003°47'0 0.0
2014-Sep-17 08:31N 51°09' E 003°47'0 0.0
2014-Sep-17 07:32N 51°09' E 003°47'0 0.0
2014-Sep-17 06:28N 51°09' E 003°47'0 0.0
2014-Sep-17 05:28N 51°09' E 003°47'0 0.0
2014-Sep-17 04:28N 51°09' E 003°47'0 0.0
2014-Sep-17 03:31N 51°09' E 003°47'0 0.0
2014-Sep-17 02:28N 51°09' E 003°47'0 0.0
2014-Sep-17 01:31N 51°09' E 003°47'0 0.0
2014-Sep-17 00:28N 51°09' E 003°47'0 0.0
2014-Sep-16 23:28N 51°09' E 003°47'0 0.0
2014-Sep-16 22:28N 51°09' E 003°47'0 0.0
2014-Sep-16 21:28N 51°09' E 003°47'0 0.0
2014-Sep-16 20:31N 51°09' E 003°47'0 0.0
2014-Sep-16 19:31N 51°09' E 003°47'0 0.0
2014-Sep-16 18:33N 51°09' E 003°47'5 4.7
2014-Sep-16 17:33N 51°13' E 003°48'6 5.5
2014-Sep-16 16:33N 51°19' E 003°50'2 1.5
2014-Sep-16 15:33N 51°20' E 003°49'9 8.7
2014-Sep-16 14:33N 51°26' E 003°39'1110.5
2014-Sep-16 13:33N 51°24' E 003°22'1110.6
2014-Sep-16 12:33N 51°24' E 003°05'1111.5
2014-Sep-16 11:33N 51°22' E 002°47'6 5.6
2014-Sep-16 10:33N 51°25' E 002°40'1 1.4
2014-Sep-16 09:31N 51°26' E 002°38'0 0.1
2014-Sep-16 08:31N 51°26' E 002°38'0 0.0
2014-Sep-16 07:31N 51°26' E 002°38'0 0.0
2014-Sep-16 06:28N 51°26' E 002°38'1 0.8
2014-Sep-16 05:33N 51°25' E 002°37'7 7.0
2014-Sep-16 04:33N 51°22' E 002°28'1111.1
2014-Sep-16 03:33N 51°19' E 002°11'1110.6
2014-Sep-16 02:34N 51°25' E 001°57'9 9.3
2014-Sep-16 01:33N 51°30' E 001°44'1010.5
2014-Sep-16 00:33N 51°27' E 001°28'1111.3
2014-Sep-15 23:33N 51°29' E 001°10'1212.0
2014-Sep-15 22:33N 51°29' E 000°51'1414.4
2014-Sep-15 21:34N 51°29' E 000°28'7 7.4
2014-Sep-15 20:34N 51°28' E 000°16'0 0.0
2014-Sep-15 19:31N 51°28' E 000°16'0 0.0
2014-Sep-15 18:28N 51°28' E 000°16'0 0.0
2014-Sep-15 17:28N 51°28' E 000°16'0 0.0
2014-Sep-15 16:31N 51°28' E 000°16'0 0.0
2014-Sep-15 15:31N 51°28' E 000°16'0 0.0
2014-Sep-15 14:31N 51°28' E 000°16'0 0.0
2014-Sep-15 13:31N 51°28' E 000°16'0 0.0
2014-Sep-15 12:31N 51°28' E 000°16'0 0.0
2014-Sep-15 11:31N 51°28' E 000°16'0 0.0
2014-Sep-15 10:31N 51°28' E 000°16'0 0.0
2014-Sep-15 09:31N 51°28' E 000°16'0 0.0
2014-Sep-15 08:31N 51°28' E 000°16'0 0.0
2014-Sep-15 07:31N 51°28' E 000°16'0 0.0
2014-Sep-15 06:31N 51°28' E 000°16'0 0.0
2014-Sep-15 05:31N 51°28' E 000°16'0 0.0
2014-Sep-15 04:31N 51°28' E 000°16'0 0.0
2014-Sep-15 03:31N 51°28' E 000°16'0 0.0
2014-Sep-15 02:31N 51°28' E 000°16'0 0.0
2014-Sep-15 01:31N 51°28' E 000°16'0 0.0
2014-Sep-15 00:31N 51°28' E 000°16'0 0.0
2014-Sep-14 23:31N 51°28' E 000°16'0 0.0
2014-Sep-14 22:31N 51°28' E 000°16'0 0.0
2014-Sep-14 21:31N 51°28' E 000°16'0 0.0
2014-Sep-14 20:31N 51°28' E 000°16'0 0.0
2014-Sep-14 19:31N 51°28' E 000°16'0 0.0
2014-Sep-14 18:31N 51°28' E 000°16'0 0.0
2014-Sep-14 17:31N 51°28' E 000°16'0 0.0
2014-Sep-14 16:31N 51°28' E 000°16'0 0.0
2014-Sep-14 15:31N 51°28' E 000°16'0 0.0
2014-Sep-14 14:28N 51°28' E 000°16'0 0.0
2014-Sep-14 13:31N 51°28' E 000°16'0 0.0
2014-Sep-14 12:31N 51°28' E 000°16'0 0.0
2014-Sep-14 11:34N 51°28' E 000°16'0 0.0
2014-Sep-14 10:31N 51°28' E 000°16'0 0.0
2014-Sep-14 09:33N 51°28' E 000°16'0 0.0
2014-Sep-14 08:33N 51°28' E 000°16'0 0.0
2014-Sep-14 07:33N 51°28' E 000°16'0 0.0
2014-Sep-14 06:33N 51°28' E 000°16'0 0.0
2014-Sep-14 05:33N 51°28' E 000°16'0 0.0
2014-Sep-14 04:33N 51°28' E 000°16'0 0.0
2014-Sep-14 03:33N 51°28' E 000°16'0 0.0
2014-Sep-14 02:33N 51°28' E 000°16'0 0.0
2014-Sep-14 01:33N 51°28' E 000°16'0 0.0
2014-Sep-13 21:33N 51°28' E 000°16'0 0.0
2014-Sep-13 20:33N 51°28' E 000°16'0 0.0
2014-Sep-13 19:33N 51°28' E 000°16'0 0.0
2014-Sep-13 18:33N 51°28' E 000°16'0 0.0
2014-Sep-13 17:33N 51°28' E 000°16'0 0.0
2014-Sep-13 16:33N 51°28' E 000°16'0 0.0
2014-Sep-13 15:33N 51°28' E 000°16'0 0.0
2014-Sep-13 14:33N 51°28' E 000°16'0 0.0
2014-Sep-13 13:33N 51°28' E 000°16'0 0.0
2014-Sep-13 12:33N 51°28' E 000°16'0 0.0
2014-Sep-13 11:33N 51°28' E 000°16'0 0.0
2014-Sep-13 10:33N 51°28' E 000°16'0 0.0
2014-Sep-13 09:33N 51°28' E 000°16'0 0.0
2014-Sep-13 08:33N 51°28' E 000°16'0 0.0
2014-Sep-13 07:33N 51°28' E 000°16'0 0.0
2014-Sep-13 06:33N 51°28' E 000°16'  
Track history (hours):
 
Tides and Currents Weather Stations Pressure Air Temp Water Temp Dewpoint Dewpoint Depression Visibility Wind Speed Wind Dir Waves Ship Positions

Torm Republican

Last reported at 2014-Sep-23 06:29 UTC. Time now 2014-Nov-22 15:39 UTC.
Position N 50°13' W 001°39'.
Warning: this ship's position is months out of date.

Length 183 m; draft 11.6 m.

Type: Ship (hazmat cat A). MMSI: 220560000.

Date/timePositionNaut miles runAvg speedWind from/ knotsBaromVisibWave heightAir tempDewpointWater temp
2014-Sep-23 06:29N 50°13' W 001°39'910.0
2014-Sep-23 05:34N 50°15' W 001°26'1111.4
2014-Sep-23 04:34N 50°19' W 001°09'1313.3
2014-Sep-23 03:33N 50°22' W 000°48'1414.1
2014-Sep-23 02:33N 50°26' W 000°27'1513.8
2014-Sep-23 01:28N 50°30' W 000°04'1213.4
2014-Sep-23 00:33N 50°33' E 000°14'1312.6
2014-Sep-22 23:33N 50°36' E 000°33'1211.7
2014-Sep-22 22:34N 50°42' E 000°49'2211.2
2014-Sep-22 20:33N 50°55' E 001°18'1313.4
2014-Sep-22 19:33N 51°05' E 001°33'1514.6
2014-Sep-22 18:33N 51°16' E 001°48'1212.1
2014-Sep-22 17:33N 51°25' E 002°01'1211.5
2014-Sep-22 16:30N 51°21' E 002°20'1212.3
2014-Sep-22 15:32N 51°23' E 002°38'1111.0
2014-Sep-22 14:34N 51°25' E 002°55'1111.1
2014-Sep-22 13:33N 51°25' E 003°13'1110.7
2014-Sep-22 12:33N 51°25' E 003°30'7 7.5
2014-Sep-22 11:33N 51°25' E 003°42'7 7.1
2014-Sep-22 10:33N 51°20' E 003°49'2 1.7
2014-Sep-22 09:34N 51°18' E 003°50'5 4.7
2014-Sep-22 08:33N 51°14' E 003°48'5 4.8
2014-Sep-22 07:33N 51°09' E 003°47'0 0.1
2014-Sep-22 06:32N 51°09' E 003°47'0 0.0
2014-Sep-22 05:32N 51°09' E 003°47'0 0.0
2014-Sep-22 04:32N 51°09' E 003°47'0 0.0
2014-Sep-22 03:32N 51°09' E 003°47'0 0.0
2014-Sep-22 02:32N 51°09' E 003°47'0 0.0
2014-Sep-22 01:32N 51°09' E 003°47'0 0.0
2014-Sep-22 00:32N 51°09' E 003°47'0 0.0
2014-Sep-21 23:32N 51°09' E 003°47'0 0.0
2014-Sep-21 22:32N 51°09' E 003°47'0 0.0
2014-Sep-21 21:32N 51°09' E 003°47'0 0.0
2014-Sep-21 20:32N 51°09' E 003°47'0 0.0
2014-Sep-21 19:28N 51°09' E 003°47'0 0.0
2014-Sep-21 18:31N 51°09' E 003°47'0 0.0
2014-Sep-21 17:31N 51°09' E 003°47'0 0.0
2014-Sep-21 16:31N 51°09' E 003°47'0 0.0
2014-Sep-21 15:19N 51°09' E 003°47'0 0.0
2014-Sep-21 14:31N 51°09' E 003°47'0 0.0
2014-Sep-21 13:31N 51°09' E 003°47'0 0.0
2014-Sep-21 12:31N 51°09' E 003°47'0 0.0
2014-Sep-21 11:31N 51°09' E 003°47'0 0.0
2014-Sep-21 10:31N 51°09' E 003°47'0 0.0
2014-Sep-21 09:25N 51°09' E 003°47'0 0.0
2014-Sep-21 08:31N 51°09' E 003°47'0 0.0
2014-Sep-21 07:31N 51°09' E 003°47'0 0.0
2014-Sep-21 06:31N 51°09' E 003°47'0 0.0
2014-Sep-21 05:31N 51°09' E 003°47'0 0.0
2014-Sep-21 04:31N 51°09' E 003°47'0 0.0
2014-Sep-21 03:31N 51°09' E 003°47'0 0.0
2014-Sep-21 02:31N 51°09' E 003°47'0 0.0
2014-Sep-21 01:31N 51°09' E 003°47'0 0.0
2014-Sep-21 00:31N 51°09' E 003°47'0 0.0
2014-Sep-20 23:31N 51°09' E 003°47'0 0.0
2014-Sep-20 22:31N 51°09' E 003°47'0 0.0
2014-Sep-20 21:31N 51°09' E 003°47'0 0.0
2014-Sep-20 20:31N 51°09' E 003°47'0 0.0
2014-Sep-20 19:31N 51°09' E 003°47'0 0.0
2014-Sep-20 18:31N 51°09' E 003°47'0 0.0
2014-Sep-20 17:31N 51°09' E 003°47'0 0.0
2014-Sep-20 16:31N 51°09' E 003°47'0 0.0
2014-Sep-20 15:31N 51°09' E 003°47'0 0.0
2014-Sep-20 14:31N 51°09' E 003°47'0 0.0
2014-Sep-20 13:31N 51°09' E 003°47'0 0.0
2014-Sep-20 12:31N 51°09' E 003°47'0 0.0
2014-Sep-20 11:31N 51°09' E 003°47'0 0.0
2014-Sep-20 10:31N 51°09' E 003°47'0 0.0
2014-Sep-20 09:33N 51°09' E 003°47'0 0.0
2014-Sep-20 08:30N 51°09' E 003°47'0 0.0
2014-Sep-20 07:31N 51°09' E 003°47'0 0.0
2014-Sep-20 06:30N 51°09' E 003°47'0 0.0
2014-Sep-20 05:30N 51°09' E 003°47'0 0.0
2014-Sep-20 04:30N 51°09' E 003°47'0 0.0
2014-Sep-20 03:30N 51°09' E 003°47'0 0.0
2014-Sep-20 02:30N 51°09' E 003°47'0 0.0
2014-Sep-20 01:30N 51°09' E 003°47'0 0.0
2014-Sep-20 00:24N 51°09' E 003°47'0 0.0
2014-Sep-19 23:24N 51°09' E 003°47'0 0.0
2014-Sep-19 22:25N 51°09' E 003°47'0 0.0
2014-Sep-19 21:24N 51°09' E 003°47'0 0.0
2014-Sep-19 20:33N 51°09' E 003°47'0 0.0
2014-Sep-19 19:33N 51°09' E 003°47'0 0.0
2014-Sep-19 18:33N 51°09' E 003°47'0 0.0
2014-Sep-19 17:33N 51°09' E 003°47'0 0.0
2014-Sep-19 16:33N 51°09' E 003°47'0 0.0
2014-Sep-19 15:30N 51°09' E 003°47'0 0.0
2014-Sep-19 14:33N 51°09' E 003°47'0 0.0
2014-Sep-19 13:30N 51°09' E 003°47'0 0.0
2014-Sep-19 12:27N 51°09' E 003°47'0 0.0
2014-Sep-19 11:33N 51°09' E 003°47'0 0.0
2014-Sep-19 10:30N 51°09' E 003°47'0 0.0
2014-Sep-19 09:30N 51°09' E 003°47'0 0.0
2014-Sep-19 08:30N 51°09' E 003°47'0 0.0
2014-Sep-19 07:33N 51°09' E 003°47'0 0.0
2014-Sep-19 06:33N 51°09' E 003°47'0 0.0
2014-Sep-19 05:33N 51°09' E 003°47'0 0.0
2014-Sep-19 04:33N 51°09' E 003°47'0 0.0
2014-Sep-19 03:30N 51°09' E 003°47'0 0.0
2014-Sep-19 02:30N 51°09' E 003°47'0 0.0
2014-Sep-19 01:27N 51°09' E 003°47'0 0.0
2014-Sep-19 00:30N 51°09' E 003°47'0 0.0
2014-Sep-18 23:30N 51°09' E 003°47'0 0.0
2014-Sep-18 22:30N 51°09' E 003°47'0 0.0
2014-Sep-18 21:30N 51°09' E 003°47'0 0.0
2014-Sep-18 20:30N 51°09' E 003°47'0 0.0
2014-Sep-18 19:32N 51°09' E 003°47'0 0.0
2014-Sep-18 18:32N 51°09' E 003°47'0 0.0
2014-Sep-18 17:32N 51°09' E 003°47'0 0.0
2014-Sep-18 16:32N 51°09' E 003°47'0 0.0
2014-Sep-18 15:32N 51°09' E 003°47'0 0.0
2014-Sep-18 14:33N 51°09' E 003°47'0 0.0
2014-Sep-18 13:32N 51°09' E 003°47'0 0.0
2014-Sep-18 12:29N 51°09' E 003°47'0 0.0
2014-Sep-18 11:32N 51°09' E 003°47'0 0.0
2014-Sep-18 10:29N 51°09' E 003°47'0 0.0
2014-Sep-18 09:29N 51°09' E 003°47'0 0.0
2014-Sep-18 08:32N 51°09' E 003°47'0 0.0
2014-Sep-18 07:29N 51°09' E 003°47'0 0.0
2014-Sep-18 06:29N 51°09' E 003°47'0 0.0
2014-Sep-18 05:29N 51°09' E 003°47'0 0.0
2014-Sep-18 04:32N 51°09' E 003°47'0 0.0
2014-Sep-18 03:29N 51°09' E 003°47'0 0.0
2014-Sep-18 02:32N 51°09' E 003°47'0 0.0
2014-Sep-18 01:29N 51°09' E 003°47'0 0.0
2014-Sep-18 00:20N 51°09' E 003°47'0 0.0
2014-Sep-17 23:32N 51°09' E 003°47'0 0.0
2014-Sep-17 22:32N 51°09' E 003°47'0 0.0
2014-Sep-17 21:29N 51°09' E 003°47'0 0.0
2014-Sep-17 20:32N 51°09' E 003°47'0 0.0
2014-Sep-17 19:29N 51°09' E 003°47'0 0.0
2014-Sep-17 18:32N 51°09' E 003°47'0 0.0
2014-Sep-17 17:29N 51°09' E 003°47'0 0.0
2014-Sep-17 16:26N 51°09' E 003°47'0 0.0
2014-Sep-17 15:29N 51°09' E 003°47'0 0.0
2014-Sep-17 14:29N 51°09' E 003°47'0 0.0
2014-Sep-17 13:32N 51°09' E 003°47'0 0.0
2014-Sep-17 12:23N 51°09' E 003°47'0 0.0
2014-Sep-17 11:29N 51°09' E 003°47'0 0.0
2014-Sep-17 10:26N 51°09' E 003°47'0 0.0
2014-Sep-17 09:29N 51°09' E 003°47'0 0.0
2014-Sep-17 08:31N 51°09' E 003°47'0 0.0
2014-Sep-17 07:32N 51°09' E 003°47'0 0.0
2014-Sep-17 06:28N 51°09' E 003°47'0 0.0
2014-Sep-17 05:28N 51°09' E 003°47'0 0.0
2014-Sep-17 04:28N 51°09' E 003°47'0 0.0
2014-Sep-17 03:31N 51°09' E 003°47'0 0.0
2014-Sep-17 02:28N 51°09' E 003°47'0 0.0
2014-Sep-17 01:31N 51°09' E 003°47'0 0.0
2014-Sep-17 00:28N 51°09' E 003°47'0 0.0
2014-Sep-16 23:28N 51°09' E 003°47'0 0.0
2014-Sep-16 22:28N 51°09' E 003°47'0 0.0
2014-Sep-16 21:28N 51°09' E 003°47'0 0.0
2014-Sep-16 20:31N 51°09' E 003°47'0 0.0
2014-Sep-16 19:31N 51°09' E 003°47'0 0.0
2014-Sep-16 18:33N 51°09' E 003°47'5 4.7
2014-Sep-16 17:33N 51°13' E 003°48'6 5.5
2014-Sep-16 16:33N 51°19' E 003°50'2 1.5
2014-Sep-16 15:33N 51°20' E 003°49'9 8.7
2014-Sep-16 14:33N 51°26' E 003°39'1110.5
2014-Sep-16 13:33N 51°24' E 003°22'1110.6
2014-Sep-16 12:33N 51°24' E 003°05'1111.5
2014-Sep-16 11:33N 51°22' E 002°47'6 5.6
2014-Sep-16 10:33N 51°25' E 002°40'1 1.4
2014-Sep-16 09:31N 51°26' E 002°38'0 0.1
2014-Sep-16 08:31N 51°26' E 002°38'0 0.0
2014-Sep-16 07:31N 51°26' E 002°38'0 0.0
2014-Sep-16 06:28N 51°26' E 002°38'1 0.8
2014-Sep-16 05:33N 51°25' E 002°37'7 7.0
2014-Sep-16 04:33N 51°22' E 002°28'1111.1
2014-Sep-16 03:33N 51°19' E 002°11'1110.6
2014-Sep-16 02:34N 51°25' E 001°57'9 9.3
2014-Sep-16 01:33N 51°30' E 001°44'1010.5
2014-Sep-16 00:33N 51°27' E 001°28'1111.3
2014-Sep-15 23:33N 51°29' E 001°10'1212.0
2014-Sep-15 22:33N 51°29' E 000°51'1414.4
2014-Sep-15 21:34N 51°29' E 000°28'7 7.4
2014-Sep-15 20:34N 51°28' E 000°16'0 0.0
2014-Sep-15 19:31N 51°28' E 000°16'0 0.0
2014-Sep-15 18:28N 51°28' E 000°16'0 0.0
2014-Sep-15 17:28N 51°28' E 000°16'0 0.0
2014-Sep-15 16:31N 51°28' E 000°16'0 0.0
2014-Sep-15 15:31N 51°28' E 000°16'0 0.0
2014-Sep-15 14:31N 51°28' E 000°16'0 0.0
2014-Sep-15 13:31N 51°28' E 000°16'0 0.0
2014-Sep-15 12:31N 51°28' E 000°16'0 0.0
2014-Sep-15 11:31N 51°28' E 000°16'0 0.0
2014-Sep-15 10:31N 51°28' E 000°16'0 0.0
2014-Sep-15 09:31N 51°28' E 000°16'0 0.0
2014-Sep-15 08:31N 51°28' E 000°16'0 0.0
2014-Sep-15 07:31N 51°28' E 000°16'0 0.0
2014-Sep-15 06:31N 51°28' E 000°16'0 0.0
2014-Sep-15 05:31N 51°28' E 000°16'0 0.0
2014-Sep-15 04:31N 51°28' E 000°16'0 0.0
2014-Sep-15 03:31N 51°28' E 000°16'0 0.0
2014-Sep-15 02:31N 51°28' E 000°16'0 0.0
2014-Sep-15 01:31N 51°28' E 000°16'0 0.0
2014-Sep-15 00:31N 51°28' E 000°16'0 0.0
2014-Sep-14 23:31N 51°28' E 000°16'0 0.0
2014-Sep-14 22:31N 51°28' E 000°16'0 0.0
2014-Sep-14 21:31N 51°28' E 000°16'0 0.0
2014-Sep-14 20:31N 51°28' E 000°16'0 0.0
2014-Sep-14 19:31N 51°28' E 000°16'0 0.0
2014-Sep-14 18:31N 51°28' E 000°16'0 0.0
2014-Sep-14 17:31N 51°28' E 000°16'0 0.0
2014-Sep-14 16:31N 51°28' E 000°16'0 0.0
2014-Sep-14 15:31N 51°28' E 000°16'0 0.0
2014-Sep-14 14:28N 51°28' E 000°16'0 0.0
2014-Sep-14 13:31N 51°28' E 000°16'0 0.0
2014-Sep-14 12:31N 51°28' E 000°16'0 0.0
2014-Sep-14 11:34N 51°28' E 000°16'0 0.0
2014-Sep-14 10:31N 51°28' E 000°16'0 0.0
2014-Sep-14 09:33N 51°28' E 000°16'0 0.0
2014-Sep-14 08:33N 51°28' E 000°16'0 0.0
2014-Sep-14 07:33N 51°28' E 000°16'0 0.0
2014-Sep-14 06:33N 51°28' E 000°16'0 0.0
2014-Sep-14 05:33N 51°28' E 000°16'0 0.0
2014-Sep-14 04:33N 51°28' E 000°16'0 0.0
2014-Sep-14 03:33N 51°28' E 000°16'0 0.0
2014-Sep-14 02:33N 51°28' E 000°16'0 0.0
2014-Sep-14 01:33N 51°28' E 000°16'0 0.0
2014-Sep-13 21:33N 51°28' E 000°16'0 0.0
2014-Sep-13 20:33N 51°28' E 000°16'0 0.0
2014-Sep-13 19:33N 51°28' E 000°16'0 0.0
2014-Sep-13 18:33N 51°28' E 000°16'0 0.0
2014-Sep-13 17:33N 51°28' E 000°16'0 0.0
2014-Sep-13 16:33N 51°28' E 000°16'0 0.0
2014-Sep-13 15:33N 51°28' E 000°16'0 0.0
2014-Sep-13 14:33N 51°28' E 000°16'0 0.0
2014-Sep-13 13:33N 51°28' E 000°16'0 0.0
2014-Sep-13 12:33N 51°28' E 000°16'0 0.0
2014-Sep-13 11:33N 51°28' E 000°16'0 0.0
2014-Sep-13 10:33N 51°28' E 000°16'0 0.0
2014-Sep-13 09:33N 51°28' E 000°16'0 0.0
2014-Sep-13 08:33N 51°28' E 000°16'0 0.0
2014-Sep-13 07:33N 51°28' E 000°16'0 0.0
2014-Sep-13 06:33N 51°28' E 000°16'  

Dump ship's entire track history